الصفحة الرئيسية
METAR-TAF:

METAR-TAF

مطار :

كوزاني, اليونان

دائرة عرض: 40-18N, خط طول: 021-47E, ارتفاع: 634 متر

مراقبة الطقس الحالي

تاريخ ووقت الإصدار 35 دقيقة قبل الساعة 09:50UTC
ريح 4 عقدة من الشمال
درجة الحرارة 9°درجة مئوية
الرطوبة 46%
ضغط 1025 hPa
الرؤية 10 كم أو أكثر
غيوم متفرقة على ارتفاع 7000 قدم

METAR: LGKZ 250950Z 36004KT 9999 SCT070 09/M02 Q1025

زمن: 12:25 (10:25 UTC)


TAF: مفقودة

أرصاد الطقس والتوقعات من أكثر من 4000 مطار (تقارير الطقس للمطار METAR والتنبؤ بالطقس بالمطارTAF).

المحطات المتاحة هي النقط الصفراء والحمراء على الخريطة.

حرك المؤشر فوق النقطة لمعرفة اسم المحطة.

ثم انقر لمعرفة أرصاد وتوقعات الطقس.

لتغيير الخارطة: اضغط على الأزرار الخضراء مع رمز الصليب الأسود للتكبير. على الزر الأخضر مع شرطة للتصغير، أو على الأسهم الخضراء للخرائط المجاورة.


METAR-TAF: